createdAt,value
2023-01-07T00:02:03.321Z,97719.63
2023-01-07T00:04:33.899Z,97724.00
2023-01-07T00:07:04.872Z,97726.69
2023-01-07T00:09:35.402Z,97733.47
2023-01-07T00:12:06.137Z,97730.50
2023-01-07T00:14:36.948Z,97737.44
2023-01-07T00:17:10.159Z,97724.03
2023-01-07T00:19:41.752Z,97719.44
2023-01-07T00:22:12.356Z,97723.97
2023-01-07T00:24:42.814Z,97731.53
2023-01-07T00:27:13.313Z,97719.38
2023-01-07T00:29:43.795Z,97725.03
2023-01-07T00:32:17.232Z,97727.56
2023-01-07T00:34:47.706Z,97731.00
2023-01-07T00:37:33.293Z,97730.56
2023-01-07T00:40:03.895Z,97727.44
2023-01-07T00:42:46.797Z,97736.84
2023-01-07T00:45:17.450Z,97733.84
2023-01-07T00:47:53.669Z,97739.63
2023-01-07T00:50:24.456Z,97742.31
2023-01-07T00:52:55.189Z,97734.59
2023-01-07T00:55:26.770Z,97735.25
2023-01-07T00:57:58.014Z,97729.66
2023-01-07T01:00:29.583Z,97735.38
2023-01-07T01:03:02.835Z,97739.19
2023-01-07T01:05:33.340Z,97741.00
2023-01-07T01:08:03.982Z,97740.69
2023-01-07T01:10:34.689Z,97740.34
2023-01-07T01:13:05.302Z,97746.69
2023-01-07T01:15:36.074Z,97747.78
2023-01-07T01:18:09.373Z,97743.06
2023-01-07T01:20:40.397Z,97743.06
2023-01-07T01:23:12.016Z,97747.03
2023-01-07T01:25:42.584Z,97742.00
2023-01-07T01:28:13.949Z,97752.69
2023-01-07T01:30:45.286Z,97750.25
2023-01-07T01:33:19.412Z,97751.91
2023-01-07T01:35:49.901Z,97754.53
2023-01-07T01:38:20.657Z,97756.03
2023-01-07T01:40:51.229Z,97767.84
2023-01-07T01:43:36.290Z,97769.59
2023-01-07T01:46:12.104Z,97769.03
2023-01-07T01:48:50.855Z,97769.72
2023-01-07T01:51:25.766Z,97773.25
2023-01-07T01:53:58.964Z,97755.31
2023-01-07T01:56:33.023Z,97760.34
2023-01-07T01:59:07.988Z,97762.78
2023-01-07T02:01:42.588Z,97756.59
2023-01-07T02:04:23.165Z,97764.06
2023-01-07T02:07:00.125Z,97760.69
2023-01-07T02:09:32.456Z,97755.25
2023-01-07T02:12:14.937Z,97753.13
2023-01-07T02:15:03.941Z,97756.78
2023-01-07T02:17:49.831Z,97758.88
2023-01-07T02:20:47.883Z,97744.63
2023-01-07T02:24:00.036Z,97747.06
2023-01-07T02:27:20.220Z,97745.88
2023-01-07T02:30:28.628Z,97738.75
2023-01-07T02:33:16.963Z,97734.53
2023-01-07T02:36:04.385Z,97735.47
2023-01-07T02:38:41.769Z,97735.28
2023-01-07T02:41:22.494Z,97713.66
2023-01-07T02:43:59.973Z,97734.75
2023-01-07T02:46:34.206Z,97735.44
2023-01-07T02:49:10.363Z,97728.59
2023-01-07T02:51:42.942Z,97730.19
2023-01-07T02:54:18.197Z,97726.78
2023-01-07T02:57:20.099Z,97719.25
2023-01-07T03:00:16.381Z,97719.16
2023-01-07T03:03:05.562Z,97730.81
2023-01-07T03:05:53.705Z,97733.03
2023-01-07T03:08:43.649Z,97736.09
2023-01-07T03:11:16.581Z,97730.50
2023-01-07T03:13:51.731Z,97726.84
2023-01-07T03:16:27.805Z,97731.88
2023-01-07T03:19:04.305Z,97733.38
2023-01-07T03:21:39.190Z,97747.22
2023-01-07T03:24:11.648Z,97742.81
2023-01-07T03:26:46.365Z,97740.28
2023-01-07T03:29:19.069Z,97749.63
2023-01-07T03:32:00.295Z,97740.91
2023-01-07T03:34:32.419Z,97749.72
2023-01-07T03:37:08.466Z,97760.25
2023-01-07T03:39:41.937Z,97748.91
2023-01-07T03:42:26.499Z,97762.03
2023-01-07T03:44:57.222Z,97756.03
2023-01-07T03:47:31.294Z,97753.50
2023-01-07T03:50:01.839Z,97759.00
2023-01-07T03:52:35.959Z,97753.09
2023-01-07T03:55:06.905Z,97761.91
2023-01-07T03:57:37.759Z,97767.16
2023-01-07T04:00:10.836Z,97769.88
2023-01-07T04:02:54.521Z,97762.09
2023-01-07T04:05:29.665Z,97769.25
2023-01-07T04:08:02.782Z,97768.50
2023-01-07T04:10:37.479Z,97760.75
2023-01-07T04:13:08.088Z,97753.91
2023-01-07T04:15:39.737Z,97753.91
2023-01-07T04:18:11.104Z,97758.44
2023-01-07T04:20:41.639Z,97763.78
2023-01-07T04:23:15.133Z,97768.41
2023-01-07T04:25:50.282Z,97773.84
2023-01-07T04:28:25.287Z,97772.38
2023-01-07T04:30:56.235Z,97774.16
2023-01-07T04:33:27.557Z,97775.22
2023-01-07T04:35:58.273Z,97779.69
2023-01-07T04:38:32.039Z,97781.59
2023-01-07T04:41:02.561Z,97783.28
2023-01-07T04:43:33.294Z,97785.13
2023-01-07T04:46:03.988Z,97779.16
2023-01-07T04:48:35.147Z,97780.13
2023-01-07T04:51:07.576Z,97774.13
2023-01-07T04:53:40.874Z,97769.19
2023-01-07T04:56:11.915Z,97770.22
2023-01-07T04:58:44.008Z,97786.78
2023-01-07T05:01:14.915Z,97788.59
2023-01-07T05:03:47.483Z,97788.69
2023-01-07T05:06:19.196Z,97781.75
2023-01-07T05:08:53.880Z,97776.81
2023-01-07T05:11:25.323Z,97789.63
2023-01-07T05:13:58.657Z,97788.06
2023-01-07T05:16:29.376Z,97791.59
2023-01-07T05:19:03.817Z,97790.09
2023-01-07T05:21:39.118Z,97786.66
2023-01-07T05:24:13.416Z,97790.31
2023-01-07T05:26:44.529Z,97779.16
2023-01-07T05:29:15.862Z,97784.31
2023-01-07T05:31:47.826Z,97787.88
2023-01-07T05:34:19.005Z,97795.66
2023-01-07T05:36:50.283Z,97790.50
2023-01-07T05:39:23.753Z,97797.66
2023-01-07T05:41:54.358Z,97795.03
2023-01-07T05:44:27.551Z,97785.56
2023-01-07T05:46:58.079Z,97797.06
2023-01-07T05:49:28.652Z,97791.97
2023-01-07T05:51:59.161Z,97792.88
2023-01-07T05:54:32.341Z,97791.19
2023-01-07T05:57:02.830Z,97792.97
2023-01-07T05:59:34.917Z,97804.41
2023-01-07T06:02:05.646Z,97805.34
2023-01-07T06:04:36.497Z,97802.91
2023-01-07T06:07:07.218Z,97794.22
2023-01-07T06:09:40.352Z,97799.47
2023-01-07T06:12:11.132Z,97808.25
2023-01-07T06:14:41.732Z,97806.56
2023-01-07T06:17:12.249Z,97808.38
2023-01-07T06:19:42.794Z,97805.94
2023-01-07T06:22:13.258Z,97819.78
2023-01-07T06:24:46.416Z,97816.25
2023-01-07T06:27:16.903Z,97816.13
2023-01-07T06:29:47.537Z,97816.03
2023-01-07T06:32:18.035Z,97816.03
2023-01-07T06:34:48.816Z,97822.75
2023-01-07T06:37:19.275Z,97816.56
2023-01-07T06:39:52.428Z,97813.84
2023-01-07T06:42:23.022Z,97823.31
2023-01-07T06:44:53.588Z,97818.81
2023-01-07T06:47:25.547Z,97821.34
2023-01-07T06:49:56.147Z,97817.69
2023-01-07T06:52:26.684Z,97811.50
2023-01-07T06:54:59.890Z,97811.31
2023-01-07T06:57:30.381Z,97804.56
2023-01-07T07:00:01.092Z,97822.25
2023-01-07T07:02:33.368Z,97814.06
2023-01-07T07:05:04.012Z,97811.97
2023-01-07T07:07:34.451Z,97808.88
2023-01-07T07:10:08.940Z,97802.19
2023-01-07T07:12:40.575Z,97806.63
2023-01-07T07:15:12.741Z,97797.00
2023-01-07T07:17:43.423Z,97797.63
2023-01-07T07:20:15.050Z,97800.06
2023-01-07T07:22:48.233Z,97795.34
2023-01-07T07:25:21.448Z,97795.97
2023-01-07T07:27:52.012Z,97793.00
2023-01-07T07:30:22.965Z,97805.78
2023-01-07T07:33:15.209Z,97796.59
2023-01-07T07:35:46.086Z,97801.56
2023-01-07T07:38:18.089Z,97797.94
2023-01-07T07:40:51.285Z,97795.97
2023-01-07T07:43:21.813Z,97789.59
2023-01-07T07:45:52.280Z,97789.50
2023-01-07T07:48:22.838Z,97795.78
2023-01-07T07:50:54.567Z,97783.03
2023-01-07T07:53:25.144Z,97783.53
2023-01-07T07:55:58.277Z,97787.72
2023-01-07T07:58:28.773Z,97785.91
2023-01-07T08:00:59.415Z,97780.41
2023-01-07T08:03:30.020Z,97774.38
2023-01-07T08:06:00.693Z,97779.31
2023-01-07T08:08:31.312Z,97771.41
2023-01-07T08:11:06.812Z,97768.88
2023-01-07T08:13:37.301Z,97775.84
2023-01-07T08:16:08.288Z,97771.59
2023-01-07T08:18:40.098Z,97774.31
2023-01-07T08:21:10.684Z,97778.72
2023-01-07T08:23:41.172Z,97780.59
2023-01-07T08:26:14.523Z,97777.16
2023-01-07T08:28:46.637Z,97770.19
2023-01-07T08:31:17.528Z,97771.88
2023-01-07T08:33:48.774Z,97776.47
2023-01-07T08:36:23.066Z,97770.44
2023-01-07T08:38:54.895Z,97762.75
2023-01-07T08:41:28.480Z,97761.16
2023-01-07T08:43:58.969Z,97764.88
2023-01-07T08:46:29.465Z,97767.06
2023-01-07T08:49:00.209Z,97776.19
2023-01-07T08:51:30.731Z,97772.22
2023-01-07T08:54:01.190Z,97763.91
2023-01-07T08:56:34.369Z,97754.47
2023-01-07T08:59:04.917Z,97753.06
2023-01-07T09:01:35.892Z,97748.38
2023-01-07T09:04:06.575Z,97750.81
2023-01-07T09:06:37.238Z,97737.88
2023-01-07T09:09:07.885Z,97731.66
2023-01-07T09:11:41.186Z,97738.84
2023-01-07T09:14:11.807Z,97736.25
2023-01-07T09:16:42.619Z,97733.81
2023-01-07T09:19:13.365Z,97727.19
2023-01-07T09:21:44.075Z,97724.63
2023-01-07T09:24:14.793Z,97718.84
2023-01-07T09:26:48.282Z,97714.81
2023-01-07T09:29:18.763Z,97713.59
2023-01-07T09:31:49.378Z,97709.53
2023-01-07T09:34:20.025Z,97697.81
2023-01-07T09:36:50.924Z,97700.91
2023-01-07T09:39:21.494Z,97696.69
2023-01-07T09:42:01.560Z,97698.31
2023-01-07T09:44:49.713Z,97689.66
2023-01-07T09:47:22.957Z,97681.13
2023-01-07T09:50:00.353Z,97683.94
2023-01-07T09:52:38.172Z,97668.94
2023-01-07T09:55:19.672Z,97674.41
2023-01-07T09:57:53.557Z,97670.81
2023-01-07T10:00:26.928Z,97670.09
2023-01-07T10:03:25.524Z,97667.44
2023-01-07T10:06:07.940Z,97652.38
2023-01-07T10:08:48.859Z,97643.16
2023-01-07T10:11:30.110Z,97638.63
2023-01-07T10:14:44.577Z,97642.97
2023-01-07T10:17:25.397Z,97644.75
2023-01-07T10:20:03.342Z,97630.28
2023-01-07T10:22:38.219Z,97626.72
2023-01-07T10:25:21.561Z,97618.13
2023-01-07T10:27:53.097Z,97631.25
2023-01-07T10:30:29.715Z,97631.53
2023-01-07T10:33:05.918Z,97631.88
2023-01-07T10:35:39.078Z,97626.28
2023-01-07T10:38:17.054Z,97614.38
2023-01-07T10:40:52.883Z,97609.75
2023-01-07T10:43:39.553Z,97613.97
2023-01-07T10:46:33.475Z,97612.47
2023-01-07T10:49:24.439Z,97603.13
2023-01-07T10:52:13.222Z,97603.63
2023-01-07T10:54:55.519Z,97605.09
2023-01-07T10:57:28.978Z,97605.69
2023-01-07T11:00:03.531Z,97606.50
2023-01-07T11:02:37.096Z,97606.44
2023-01-07T11:05:08.935Z,97596.03
2023-01-07T11:07:47.003Z,97596.47
2023-01-07T11:10:20.905Z,97592.41
2023-01-07T11:12:54.284Z,97586.00
2023-01-07T11:15:29.126Z,97582.56
2023-01-07T11:18:04.753Z,97581.47
2023-01-07T11:20:49.860Z,97576.75
2023-01-07T11:23:38.086Z,97576.00
2023-01-07T11:26:13.552Z,97568.94
2023-01-07T11:28:54.388Z,97568.22
2023-01-07T11:31:32.179Z,97561.16
2023-01-07T11:34:05.696Z,97565.94
2023-01-07T11:36:43.258Z,97563.56
2023-01-07T11:39:21.228Z,97562.59
2023-01-07T11:41:57.915Z,97552.69
2023-01-07T11:44:29.245Z,97552.50
2023-01-07T11:47:00.005Z,97544.53
2023-01-07T11:49:34.104Z,97535.06
2023-01-07T11:52:04.688Z,97549.88
2023-01-07T11:54:36.042Z,97544.19
2023-01-07T11:57:23.301Z,97542.03
2023-01-07T12:00:15.567Z,97540.16
2023-01-07T12:02:46.655Z,97536.81
2023-01-07T12:05:26.507Z,97541.09
2023-01-07T12:07:59.347Z,97537.44
2023-01-07T12:10:36.873Z,97532.56
2023-01-07T12:13:09.445Z,97531.25
2023-01-07T12:15:52.777Z,97537.56
2023-01-07T12:18:58.164Z,97536.09
2023-01-07T12:21:54.840Z,97531.25
2023-01-07T12:24:41.469Z,97526.44
2023-01-07T12:27:24.061Z,97526.75
2023-01-07T12:30:06.503Z,97527.56
2023-01-07T12:32:50.910Z,97514.72
2023-01-07T12:35:26.395Z,97522.56
2023-01-07T12:38:03.052Z,97519.72
2023-01-07T12:40:39.772Z,97526.97
2023-01-07T12:43:17.883Z,97521.69
2023-01-07T12:45:55.725Z,97523.63
2023-01-07T12:48:32.278Z,97522.84
2023-01-07T12:51:05.934Z,97521.34
2023-01-07T12:53:45.184Z,97519.19
2023-01-07T12:56:23.055Z,97514.81
2023-01-07T12:58:59.158Z,97520.03
2023-01-07T13:01:31.942Z,97516.78
2023-01-07T13:04:11.786Z,97514.19
2023-01-07T13:06:48.199Z,97516.56
2023-01-07T13:09:30.581Z,97518.06
2023-01-07T13:12:41.675Z,97515.88
2023-01-07T13:15:27.179Z,97514.88
2023-01-07T13:17:59.572Z,97518.53
2023-01-07T13:20:47.031Z,97517.66
2023-01-07T13:23:25.735Z,97520.13
2023-01-07T13:26:13.190Z,97520.78
2023-01-07T13:29:08.669Z,97524.13
2023-01-07T13:31:50.958Z,97520.50
2023-01-07T13:34:31.417Z,97523.09
2023-01-07T13:37:22.259Z,97525.16
2023-01-07T13:40:05.777Z,97530.22
2023-01-07T13:42:50.659Z,97531.16
2023-01-07T13:45:24.786Z,97537.16
2023-01-07T13:47:58.091Z,97531.47
2023-01-07T13:50:35.525Z,97530.25
2023-01-07T13:53:09.192Z,97530.53
2023-01-07T13:55:44.631Z,97527.81
2023-01-07T13:58:47.230Z,97530.47
2023-01-07T14:01:19.006Z,97535.00
2023-01-07T14:03:53.722Z,97530.41
2023-01-07T14:06:46.994Z,97534.22
2023-01-07T14:09:34.595Z,97529.13
2023-01-07T14:12:25.864Z,97536.75
2023-01-07T14:15:13.541Z,97538.03
2023-01-07T14:17:56.850Z,97542.59
2023-01-07T14:20:33.194Z,97535.47
2023-01-07T14:23:14.077Z,97535.19
2023-01-07T14:25:59.888Z,97543.72
2023-01-07T14:29:02.777Z,97542.75
2023-01-07T14:31:36.056Z,97545.03
2023-01-07T14:34:08.873Z,97540.28
2023-01-07T14:37:17.795Z,97540.09
2023-01-07T14:39:50.043Z,97541.16
2023-01-07T14:42:46.042Z,97535.75
2023-01-07T14:45:56.415Z,97538.84
2023-01-07T14:48:37.891Z,97521.88
2023-01-07T14:51:34.709Z,97542.00
2023-01-07T14:54:31.501Z,97543.13
2023-01-07T14:57:14.213Z,97546.78
2023-01-07T15:00:10.180Z,97551.00
2023-01-07T15:03:10.402Z,97551.41
2023-01-07T15:06:07.235Z,97559.63
2023-01-07T15:09:00.085Z,97566.53
2023-01-07T15:11:46.541Z,97566.94
2023-01-07T15:14:38.090Z,97561.19
2023-01-07T15:17:09.494Z,97563.53
2023-01-07T15:19:41.661Z,97570.19
2023-01-07T15:22:56.348Z,97561.38
2023-01-07T15:25:40.917Z,97575.81
2023-01-07T15:28:17.809Z,97576.63
2023-01-07T15:30:57.850Z,97573.81
2023-01-07T15:34:00.526Z,97575.47
2023-01-07T15:36:33.511Z,97578.75
2023-01-07T15:39:06.759Z,97581.41
2023-01-07T15:41:42.965Z,97580.97
2023-01-07T15:44:21.070Z,97581.13
2023-01-07T15:46:52.055Z,97586.63
2023-01-07T15:49:29.759Z,97582.56
2023-01-07T15:52:02.363Z,97583.09
2023-01-07T15:54:38.516Z,97584.53
2023-01-07T15:57:17.522Z,97581.94
2023-01-07T15:59:50.651Z,97591.22
2023-01-07T16:02:29.466Z,97581.38
2023-01-07T16:05:02.926Z,97588.72
2023-01-07T16:07:37.537Z,97590.63
2023-01-07T16:10:08.668Z,97596.75
2023-01-07T16:12:42.350Z,97597.09
2023-01-07T16:15:31.023Z,97594.63
2023-01-07T16:18:03.121Z,97593.47
2023-01-07T16:20:36.113Z,97593.16
2023-01-07T16:23:22.740Z,97593.56
2023-01-07T16:25:58.604Z,97599.25
2023-01-07T16:28:36.777Z,97599.75
2023-01-07T16:31:10.839Z,97598.56
2023-01-07T16:33:43.462Z,97600.28
2023-01-07T16:36:17.882Z,97604.78
2023-01-07T16:39:00.541Z,97610.97
2023-01-07T16:41:33.425Z,97611.25
2023-01-07T16:44:08.499Z,97603.63
2023-01-07T16:46:43.265Z,97611.88
2023-01-07T16:49:32.146Z,97610.59
2023-01-07T16:52:09.756Z,97607.69
2023-01-07T16:54:42.139Z,97608.69
2023-01-07T16:57:40.023Z,97610.78
2023-01-07T17:00:21.037Z,97610.78
2023-01-07T17:02:58.960Z,97614.13
2023-01-07T17:05:31.074Z,97611.50
2023-01-07T17:08:05.690Z,97609.66
2023-01-07T17:10:38.461Z,97612.47
2023-01-07T17:13:10.726Z,97615.38
2023-01-07T17:15:45.134Z,97614.66
2023-01-07T17:18:32.141Z,97611.56
2023-01-07T17:21:03.929Z,97619.06
2023-01-07T17:23:35.700Z,97613.00
2023-01-07T17:26:14.207Z,97600.22
2023-01-07T17:28:48.948Z,97618.03
2023-01-07T17:31:23.683Z,97615.44
2023-01-07T17:33:55.228Z,97618.59
2023-01-07T17:36:27.272Z,97612.56
2023-01-07T17:39:00.890Z,97618.81
2023-01-07T17:41:43.845Z,97615.72
2023-01-07T17:44:14.815Z,97612.28
2023-01-07T17:46:47.988Z,97626.63
2023-01-07T17:49:20.512Z,97613.91
2023-01-07T17:51:54.495Z,97624.72
2023-01-07T17:54:28.069Z,97625.25
2023-01-07T17:56:58.664Z,97619.34
2023-01-07T17:59:33.230Z,97625.34
2023-01-07T18:02:07.202Z,97628.56
2023-01-07T18:04:37.934Z,97624.97
2023-01-07T18:07:08.616Z,97625.59
2023-01-07T18:09:40.942Z,97621.25
2023-01-07T18:12:34.745Z,97627.88
2023-01-07T18:15:07.110Z,97614.00
2023-01-07T18:17:40.386Z,97622.16
2023-01-07T18:20:12.056Z,97616.88
2023-01-07T18:22:42.627Z,97621.91
2023-01-07T18:25:18.953Z,97618.94
2023-01-07T18:27:49.649Z,97618.94
2023-01-07T18:30:22.201Z,97619.78
2023-01-07T18:32:55.633Z,97619.31
2023-01-07T18:35:26.421Z,97627.34
2023-01-07T18:37:57.031Z,97619.56
2023-01-07T18:40:27.643Z,97621.94
2023-01-07T18:43:00.246Z,97617.84
2023-01-07T18:45:30.934Z,97620.94
2023-01-07T18:48:04.423Z,97623.34
2023-01-07T18:50:34.910Z,97611.25
2023-01-07T18:53:05.885Z,97619.50
2023-01-07T18:55:36.818Z,97614.72
2023-01-07T18:58:07.460Z,97602.38
2023-01-07T19:00:38.487Z,97617.22
2023-01-07T19:03:14.287Z,97602.34
2023-01-07T19:05:44.874Z,97613.56
2023-01-07T19:08:15.358Z,97611.56
2023-01-07T19:10:45.958Z,97612.00
2023-01-07T19:13:16.528Z,97613.66
2023-01-07T19:15:47.079Z,97613.19
2023-01-07T19:18:20.247Z,97608.03
2023-01-07T19:20:50.851Z,97614.63
2023-01-07T19:23:24.387Z,97603.56
2023-01-07T19:26:02.050Z,97605.13
2023-01-07T19:28:33.022Z,97607.88
2023-01-07T19:31:07.860Z,97610.28
2023-01-07T19:33:41.969Z,97609.72
2023-01-07T19:36:17.562Z,97602.31
2023-01-07T19:38:50.728Z,97608.88
2023-01-07T19:41:23.454Z,97603.88
2023-01-07T19:43:55.008Z,97616.19
2023-01-07T19:46:26.179Z,97614.66
2023-01-07T19:48:59.350Z,97619.84
2023-01-07T19:51:30.248Z,97610.56
2023-01-07T19:54:00.871Z,97609.81
2023-01-07T19:56:32.838Z,97609.94
2023-01-07T19:59:03.458Z,97613.47
2023-01-07T20:01:34.400Z,97617.31
2023-01-07T20:04:09.383Z,97620.19
2023-01-07T20:06:41.973Z,97607.81
2023-01-07T20:09:13.614Z,97623.97
2023-01-07T20:11:44.362Z,97620.28
2023-01-07T20:14:15.710Z,97620.09
2023-01-07T20:16:46.226Z,97617.13
2023-01-07T20:19:19.602Z,97611.44
2023-01-07T20:21:50.079Z,97620.06
2023-01-07T20:24:20.694Z,97626.59
2023-01-07T20:26:52.674Z,97608.56
2023-01-07T20:29:25.098Z,97615.72
2023-01-07T20:31:55.577Z,97620.59
2023-01-07T20:34:28.780Z,97615.13
2023-01-07T20:36:59.346Z,97609.06
2023-01-07T20:39:29.943Z,97617.34
2023-01-07T20:42:00.624Z,97619.31
2023-01-07T20:44:31.248Z,97611.13
2023-01-07T20:47:01.927Z,97612.38
2023-01-07T20:49:35.114Z,97605.84
2023-01-07T20:52:06.088Z,97609.06
2023-01-07T20:54:37.654Z,97612.84
2023-01-07T20:57:09.062Z,97614.47
2023-01-07T20:59:39.715Z,97610.03
2023-01-07T21:02:11.081Z,97608.25
2023-01-07T21:04:46.033Z,97603.03
2023-01-07T21:07:16.628Z,97610.44
2023-01-07T21:09:47.418Z,97609.75
2023-01-07T21:12:17.919Z,97600.94
2023-01-07T21:14:48.537Z,97605.25
2023-01-07T21:17:19.474Z,97610.75
2023-01-07T21:19:53.009Z,97607.72
2023-01-07T21:22:23.539Z,97609.41
2023-01-07T21:24:54.139Z,97613.19
2023-01-07T21:27:24.962Z,97607.69
2023-01-07T21:29:55.563Z,97599.81
2023-01-07T21:32:26.239Z,97604.69
2023-01-07T21:34:59.387Z,97599.88
2023-01-07T21:37:30.324Z,97602.84
2023-01-07T21:40:01.170Z,97604.47
2023-01-07T21:42:33.254Z,97597.56
2023-01-07T21:45:05.376Z,97597.59
2023-01-07T21:47:36.959Z,97588.06
2023-01-07T21:50:12.671Z,97594.25
2023-01-07T21:52:43.096Z,97579.91
2023-01-07T21:55:13.529Z,97589.56
2023-01-07T21:57:44.371Z,97588.06
2023-01-07T22:00:16.821Z,97585.88
2023-01-07T22:02:47.462Z,97587.13
2023-01-07T22:05:20.892Z,97582.41
2023-01-07T22:07:51.397Z,97576.91
2023-01-07T22:10:22.163Z,97578.38
2023-01-07T22:12:52.950Z,97573.78
2023-01-07T22:15:24.090Z,97570.19
2023-01-07T22:17:55.321Z,97575.25
2023-01-07T22:20:28.799Z,97567.50
2023-01-07T22:22:59.418Z,97561.84
2023-01-07T22:25:30.041Z,97557.53
2023-01-07T22:28:02.318Z,97556.09
2023-01-07T22:30:35.981Z,97549.56
2023-01-07T22:33:06.633Z,97550.53
2023-01-07T22:35:40.015Z,97535.94
2023-01-07T22:38:11.965Z,97539.59
2023-01-07T22:40:43.281Z,97532.50
2023-01-07T22:43:17.809Z,97540.47
2023-01-07T22:45:54.849Z,97529.22
2023-01-07T22:48:28.400Z,97530.38
2023-01-07T22:51:06.165Z,97525.59
2023-01-07T22:53:36.810Z,97528.63
2023-01-07T22:56:08.116Z,97524.75
2023-01-07T22:58:39.044Z,97524.50
2023-01-07T23:01:13.030Z,97531.38
2023-01-07T23:03:44.982Z,97501.09
2023-01-07T23:06:19.258Z,97517.94
2023-01-07T23:08:49.747Z,97515.38
2023-01-07T23:11:32.425Z,97507.81
2023-01-07T23:14:03.128Z,97510.28
2023-01-07T23:16:33.937Z,97510.16
2023-01-07T23:19:04.345Z,97503.59
2023-01-07T23:21:37.977Z,97513.13
2023-01-07T23:24:08.708Z,97502.00
2023-01-07T23:26:39.492Z,97510.94
2023-01-07T23:29:10.523Z,97499.00
2023-01-07T23:31:41.160Z,97500.16
2023-01-07T23:34:11.763Z,97503.78
2023-01-07T23:36:45.034Z,97504.81
2023-01-07T23:39:16.031Z,97501.06
2023-01-07T23:41:46.579Z,97498.31
2023-01-07T23:44:17.575Z,97489.72
2023-01-07T23:46:48.105Z,97498.66
2023-01-07T23:49:18.754Z,97491.09
2023-01-07T23:51:52.012Z,97490.06
2023-01-07T23:54:24.075Z,97494.53
2023-01-07T23:56:54.862Z,97487.94
2023-01-07T23:59:25.624Z,97480.50
